Time;durP1;ratioP1;P1;durP2;ratioP2;P2;SDS_P1;SDS_P2;PMS_P1;PMS_P2;Temp;Humidity;BMP_temperature;BMP_pressure;BME280_temperature;BME280_humidity;BME280_pressure;Samples;Min_cycle;Max_cycle;Signal;HPM_P1;HPM_P2
2022/09/07 00:01:39;;;;;;;4.03;0.80;;;15.90;63.00;;;;;;4126286;28;20034;-85
2022/09/07 00:03:40;;;;;;;2.10;0.70;;;15.90;63.10;;;;;;4108163;28;20038;-84
2022/09/07 00:05:42;;;;;;;3.50;0.93;;;15.90;63.20;;;;;;4119148;28;20043;-83
2022/09/07 00:07:43;;;;;;;3.42;0.80;;;15.90;63.20;;;;;;4117227;28;20491;-84
2022/09/07 00:09:44;;;;;;;2.78;0.73;;;15.90;63.70;;;;;;4118966;28;20089;-84
2022/09/07 00:11:45;;;;;;;8.02;1.02;;;15.90;63.60;;;;;;4121536;28;20073;-84
2022/09/07 00:13:48;;;;;;;3.85;0.82;;;15.90;63.60;;;;;;4119409;28;20534;-83
2022/09/07 00:15:49;;;;;;;5.00;1.15;;;15.80;63.60;;;;;;4115663;28;20022;-84
2022/09/07 00:17:49;;;;;;;3.33;0.77;;;15.90;63.90;;;;;;4120842;28;20600;-84
2022/09/07 00:19:50;;;;;;;3.05;0.90;;;15.80;63.70;;;;;;4121189;28;20112;-85
2022/09/07 00:21:51;;;;;;;2.90;0.68;;;15.80;63.90;;;;;;4121211;28;20026;-84
2022/09/07 00:23:53;;;;;;;5.07;0.98;;;15.90;63.90;;;;;;4119623;28;20034;-85
2022/09/07 00:25:58;;;;;;;4.75;1.02;;;15.80;64.20;;;;;;4117579;28;20046;-85
2022/09/07 00:28:02;;;;;;;5.00;1.15;;;15.80;64.20;;;;;;4108435;28;20499;-86
2022/09/07 00:30:04;;;;;;;3.92;0.80;;;15.80;64.10;;;;;;4115660;28;20034;-85
2022/09/07 00:32:05;;;;;;;2.95;0.52;;;15.80;64.20;;;;;;4119908;28;20030;-86
2022/09/07 00:34:06;;;;;;;4.90;1.17;;;15.80;64.20;;;;;;4118676;28;20029;-85
2022/09/07 00:36:06;;;;;;;2.97;1.00;;;15.80;64.40;;;;;;4116964;28;20026;-85
2022/09/07 00:38:08;;;;;;;6.93;1.00;;;15.80;64.50;;;;;;4133644;28;20046;-85
2022/09/07 00:40:09;;;;;;;7.05;1.02;;;15.90;64.70;;;;;;4133935;28;20041;-84
2022/09/07 00:42:09;;;;;;;7.38;1.38;;;15.80;64.60;;;;;;4117532;28;20598;-84
2022/09/07 00:44:41;;;;;;;5.20;0.90;;;15.80;64.90;;;;;;4119992;28;20065;-84
2022/09/07 00:46:42;;;;;;;8.88;1.10;;;15.80;65.70;;;;;;4116014;28;20410;-84
2022/09/07 00:49:01;;;;;;;8.75;1.10;;;15.80;65.50;;;;;;4121257;28;20113;-83
2022/09/07 00:51:06;;;;;;;7.45;1.45;;;15.80;65.50;;;;;;4117885;28;20030;-84
2022/09/07 00:53:18;;;;;;;7.55;1.17;;;15.70;66.00;;;;;;4132973;28;20069;-84
2022/09/07 00:55:19;;;;;;;5.72;1.10;;;15.70;66.40;;;;;;4120584;28;20074;-84
2022/09/07 00:57:20;;;;;;;8.13;1.10;;;15.70;66.30;;;;;;4119654;28;20026;-84
2022/09/07 00:59:27;;;;;;;4.03;1.17;;;15.70;66.40;;;;;;4119624;28;20114;-84
2022/09/07 01:01:28;;;;;;;4.57;0.80;;;15.70;66.40;;;;;;4123021;28;20125;-84
2022/09/07 01:03:34;;;;;;;8.20;1.00;;;15.70;66.40;;;;;;4124435;28;20030;-84
2022/09/07 01:05:44;;;;;;;4.80;1.15;;;15.70;66.40;;;;;;4117570;28;20524;-84
2022/09/07 01:07:45;;;;;;;4.20;1.60;;;15.70;66.70;;;;;;4115277;28;20034;-84
2022/09/07 01:09:47;;;;;;;3.25;0.90;;;15.70;66.50;;;;;;4116764;28;20058;-83
2022/09/07 01:11:49;;;;;;;6.72;0.90;;;15.70;66.60;;;;;;4129339;28;20030;-84
2022/09/07 01:13:51;;;;;;;5.35;0.93;;;15.70;66.40;;;;;;4131021;28;20061;-84
2022/09/07 01:15:58;;;;;;;5.57;1.08;;;15.70;66.60;;;;;;4117250;28;20108;-84
2022/09/07 01:18:26;;;;;;;8.60;1.40;;;15.70;66.60;;;;;;4118292;28;20069;-84
2022/09/07 01:20:49;;;;;;;4.95;1.05;;;15.70;67.30;;;;;;4115327;28;20046;-84
2022/09/07 01:23:11;;;;;;;7.13;1.07;;;15.70;67.40;;;;;;4117356;28;20029;-84
2022/09/07 01:25:26;;;;;;;3.70;1.20;;;15.70;67.30;;;;;;4099526;28;20290;-83
2022/09/07 01:27:29;;;;;;;4.95;1.15;;;15.60;67.20;;;;;;4114845;28;20042;-85
2022/09/07 01:29:45;;;;;;;7.18;1.73;;;15.60;67.00;;;;;;4119180;28;20021;-84
2022/09/07 01:31:58;;;;;;;3.97;1.00;;;15.60;66.90;;;;;;4124129;28;20050;-85
2022/09/07 01:34:20;;;;;;;3.90;1.10;;;15.70;66.70;;;;;;4131842;28;20461;-85
2022/09/07 01:36:49;;;;;;;4.05;0.85;;;15.70;67.30;;;;;;4127392;28;20030;-85
2022/09/07 01:39:00;;;;;;;4.25;1.08;;;15.70;66.30;;;;;;4127247;28;20149;-84
2022/09/07 01:41:31;;;;;;;2.90;0.90;;;15.70;66.10;;;;;;4116167;28;20113;-85
2022/09/07 01:43:36;;;;;;;7.90;1.10;;;15.70;66.00;;;;;;4130588;28;20041;-83
2022/09/07 01:45:40;;;;;;;5.90;0.98;;;15.70;65.70;;;;;;4139830;28;20091;-83
2022/09/07 01:47:51;;;;;;;3.88;1.00;;;15.70;65.60;;;;;;4133069;28;20027;-84
2022/09/07 01:50:09;;;;;;;3.45;1.05;;;15.70;65.50;;;;;;4133151;28;20128;-85
2022/09/07 01:52:18;;;;;;;6.88;0.93;;;15.70;65.40;;;;;;4118452;28;20027;-85
2022/09/07 01:54:30;;;;;;;5.28;0.90;;;15.70;65.40;;;;;;4118868;28;20508;-85
2022/09/07 01:56:39;;;;;;;2.75;1.00;;;15.60;65.40;;;;;;4112962;28;20053;-86
2022/09/07 01:58:56;;;;;;;9.15;1.23;;;15.70;65.40;;;;;;4118539;28;20062;-85
2022/09/07 02:01:07;;;;;;;4.40;1.05;;;15.60;65.60;;;;;;4117342;28;20048;-84
2022/09/07 02:03:19;;;;;;;10.35;1.40;;;15.50;66.00;;;;;;4116554;28;20133;-85
2022/09/07 02:05:26;;;;;;;5.05;1.10;;;15.50;66.00;;;;;;4115459;28;20035;-84
2022/09/07 02:07:35;;;;;;;4.47;1.20;;;15.50;66.10;;;;;;4119523;28;20129;-83
2022/09/07 02:09:55;;;;;;;7.45;1.20;;;15.50;66.10;;;;;;4119574;28;20032;-83
2022/09/07 02:11:59;;;;;;;5.45;1.08;;;15.50;66.10;;;;;;4119349;28;20038;-84
2022/09/07 02:14:06;;;;;;;6.43;0.98;;;15.50;66.10;;;;;;4117410;28;20019;-84
2022/09/07 02:16:17;;;;;;;5.68;1.10;;;15.50;66.00;;;;;;4116018;28;20050;-85
2022/09/07 02:18:20;;;;;;;11.68;1.40;;;15.50;66.20;;;;;;4129558;28;20041;-84
2022/09/07 02:20:25;;;;;;;;;;;15.50;66.40;;;;;;4130612;28;20030;-84
2022/09/07 02:22:31;;;;;;;2.85;0.75;;;15.50;66.60;;;;;;4117689;28;19910;-84
2022/09/07 02:24:39;;;;;;;6.75;1.20;;;15.50;65.90;;;;;;4119663;28;20687;-84
2022/09/07 02:26:41;;;;;;;4.50;1.13;;;15.50;65.80;;;;;;4113002;28;20030;-83
2022/09/07 02:28:42;;;;;;;6.13;1.00;;;15.50;66.00;;;;;;4128808;28;20605;-84
2022/09/07 02:30:43;;;;;;;5.38;1.30;;;15.50;65.80;;;;;;4114503;28;20121;-83
2022/09/07 02:32:44;;;;;;;8.00;1.00;;;15.50;65.70;;;;;;4117555;28;20037;-84
2022/09/07 02:34:45;;;;;;;6.22;1.02;;;15.60;65.70;;;;;;4115598;28;20026;-84
2022/09/07 02:36:47;;;;;;;3.63;0.90;;;15.60;65.70;;;;;;4116628;28;20034;-84
2022/09/07 02:38:49;;;;;;;;;;;15.60;65.50;;;;;;4117621;28;20054;-84
2022/09/07 02:40:55;;;;;;;7.82;1.15;;;15.60;65.60;;;;;;4114623;28;19910;-84
2022/09/07 02:43:02;;;;;;;4.10;1.08;;;15.60;65.30;;;;;;4114593;28;20027;-85
2022/09/07 02:45:05;;;;;;;6.35;1.00;;;15.60;65.20;;;;;;4103615;28;20038;-85
2022/09/07 02:47:17;;;;;;;;;;;15.60;65.10;;;;;;4114788;28;20113;-85
2022/09/07 02:49:50;;;;;;;3.80;1.13;;;15.60;65.60;;;;;;4117846;28;20409;-85
2022/09/07 02:52:42;;;;;;;2.50;1.00;;;15.60;65.40;;;;;;4114148;28;20058;-85
2022/09/07 02:55:11;;;;;;;4.93;1.30;;;15.50;65.70;;;;;;4111052;28;20060;-85
2022/09/07 02:57:47;;;;;;;5.88;1.08;;;15.50;65.70;;;;;;4117091;28;20059;-85
2022/09/07 03:00:04;;;;;;;5.45;1.20;;;15.50;66.10;;;;;;4119453;28;20040;-85
2022/09/07 03:02:05;;;;;;;4.75;1.10;;;15.40;66.50;;;;;;4129066;28;20160;-85
2022/09/07 03:04:13;;;;;;;9.68;1.20;;;15.50;66.20;;;;;;4122027;28;20105;-83
2022/09/07 03:06:31;;;;;;;3.90;1.02;;;15.50;66.40;;;;;;4128380;28;20065;-85
2022/09/07 03:08:47;;;;;;;3.42;0.88;;;15.50;66.70;;;;;;4113823;28;20046;-85
2022/09/07 03:10:48;;;;;;;6.72;1.20;;;15.40;66.80;;;;;;4113683;28;20025;-85
2022/09/07 03:12:50;;;;;;;7.90;1.33;;;15.40;66.90;;;;;;4117213;28;20033;-86
2022/09/07 03:14:51;;;;;;;6.05;1.23;;;15.50;66.90;;;;;;4111987;28;20042;-85
2022/09/07 03:16:55;;;;;;;5.28;1.73;;;15.50;66.70;;;;;;4110515;28;21656;-85
2022/09/07 03:18:55;;;;;;;4.20;0.90;;;15.50;67.20;;;;;;4108970;28;20046;-84
2022/09/07 03:20:56;;;;;;;7.13;1.48;;;15.50;66.90;;;;;;4122878;28;20034;-84
2022/09/07 03:22:57;;;;;;;4.22;1.00;;;15.50;67.30;;;;;;4124008;28;20053;-83
2022/09/07 03:24:57;;;;;;;6.30;1.50;;;15.50;67.20;;;;;;4119285;28;20324;-84
2022/09/07 03:26:59;;;;;;;7.00;1.10;;;15.50;67.40;;;;;;4119319;28;20027;-84
2022/09/07 03:29:00;;;;;;;2.95;1.52;;;15.50;67.10;;;;;;4119921;28;20026;-84
2022/09/07 03:31:01;;;;;;;5.13;1.40;;;15.50;67.30;;;;;;4131815;28;20065;-84
2022/09/07 03:33:02;;;;;;;3.33;1.20;;;15.50;67.10;;;;;;4118102;28;20023;-83
2022/09/07 03:35:05;;;;;;;4.97;1.20;;;15.50;67.00;;;;;;4119021;28;20119;-84
2022/09/07 03:37:05;;;;;;;4.22;1.20;;;15.60;67.00;;;;;;4113830;28;20061;-84
2022/09/07 03:39:07;;;;;;;7.70;1.20;;;15.50;66.90;;;;;;4114557;28;20435;-85
2022/09/07 03:41:07;;;;;;;5.68;1.40;;;15.60;67.10;;;;;;4119747;28;20080;-84
2022/09/07 03:43:08;;;;;;;6.47;1.05;;;15.50;67.40;;;;;;4122490;28;20034;-84
2022/09/07 03:45:09;;;;;;;12.15;1.35;;;15.60;67.40;;;;;;4122305;28;20030;-84
2022/09/07 03:47:10;;;;;;;5.88;1.17;;;15.50;67.30;;;;;;4134424;28;20476;-85
2022/09/07 03:49:11;;;;;;;6.45;1.10;;;15.50;67.30;;;;;;4105980;28;20382;-84
2022/09/07 03:51:14;;;;;;;3.97;1.35;;;15.60;67.50;;;;;;4122930;28;20070;-84
2022/09/07 03:53:14;;;;;;;8.90;1.53;;;15.50;67.50;;;;;;4124066;28;20031;-83
2022/09/07 03:55:15;;;;;;;2.88;1.10;;;15.50;67.50;;;;;;4125132;28;20290;-85
2022/09/07 03:57:16;;;;;;;11.30;1.45;;;15.50;67.50;;;;;;4121097;28;20124;-84
2022/09/07 03:59:16;;;;;;;6.10;1.33;;;15.60;67.40;;;;;;4121939;28;21803;-84
2022/09/07 04:01:23;;;;;;;9.10;1.73;;;15.60;67.30;;;;;;4119735;28;20030;-84
2022/09/07 04:03:24;;;;;;;4.93;1.15;;;15.60;67.40;;;;;;4132719;28;20085;-83
2022/09/07 04:05:25;;;;;;;4.70;1.27;;;15.60;67.20;;;;;;4135398;28;20042;-82
2022/09/07 04:07:26;;;;;;;8.25;1.17;;;15.60;67.20;;;;;;4119013;28;20030;-83
2022/09/07 04:09:26;;;;;;;10.10;1.70;;;15.60;67.50;;;;;;4120232;28;20042;-83
2022/09/07 04:11:27;;;;;;;10.35;1.63;;;15.60;67.50;;;;;;4120939;28;20685;-83
2022/09/07 04:13:48;;;;;;;4.45;1.30;;;15.60;67.50;;;;;;4119682;28;20037;-84
2022/09/07 04:15:48;;;;;;;8.93;1.30;;;15.60;67.40;;;;;;4121291;28;20570;-83
2022/09/07 04:17:49;;;;;;;6.50;1.23;;;15.60;67.10;;;;;;4117884;28;20058;-83
2022/09/07 04:19:51;;;;;;;6.57;1.30;;;15.60;67.20;;;;;;4112777;28;20739;-84
2022/09/07 04:21:51;;;;;;;3.10;1.20;;;15.60;67.30;;;;;;4122481;28;20517;-84
2022/09/07 04:23:53;;;;;;;5.05;1.13;;;15.60;67.40;;;;;;4116854;28;20110;-83
2022/09/07 04:25:54;;;;;;;9.40;1.88;;;15.60;67.30;;;;;;4117070;28;20084;-85
2022/09/07 04:27:55;;;;;;;4.88;1.27;;;15.60;67.30;;;;;;4118324;28;20748;-84
2022/09/07 04:29:56;;;;;;;8.48;1.10;;;15.60;67.30;;;;;;4118326;28;20038;-84
2022/09/07 04:31:57;;;;;;;10.75;1.45;;;15.60;67.40;;;;;;4122812;28;20059;-84
2022/09/07 04:33:57;;;;;;;4.63;1.30;;;15.60;67.30;;;;;;4121615;28;20770;-86
2022/09/07 04:36:00;;;;;;;4.35;1.50;;;15.60;67.50;;;;;;4103119;28;20476;-83
2022/09/07 04:38:01;;;;;;;5.15;1.55;;;15.60;67.40;;;;;;4120706;28;20061;-83
2022/09/07 04:40:03;;;;;;;4.22;1.40;;;15.60;67.50;;;;;;4118973;28;20030;-83
2022/09/07 04:42:04;;;;;;;7.35;1.52;;;15.60;67.50;;;;;;4126857;28;20034;-84
2022/09/07 04:44:05;;;;;;;3.15;1.23;;;15.50;67.50;;;;;;4124989;28;20660;-84
2022/09/07 04:46:10;;;;;;;9.45;1.58;;;15.60;67.80;;;;;;4119852;28;20038;-83
2022/09/07 04:48:10;;;;;;;9.93;1.67;;;15.50;68.10;;;;;;4127316;28;20081;-84
2022/09/07 04:50:11;;;;;;;7.68;1.55;;;15.50;68.10;;;;;;4123510;28;20498;-84
2022/09/07 04:52:12;;;;;;;7.35;1.50;;;15.50;68.20;;;;;;4134896;28;20147;-84
2022/09/07 04:54:12;;;;;;;8.27;1.48;;;15.50;68.50;;;;;;4115884;28;20046;-83
2022/09/07 04:56:13;;;;;;;6.03;1.60;;;15.50;68.40;;;;;;4125097;28;20154;-83
2022/09/07 04:58:14;;;;;;;11.30;1.15;;;15.40;68.70;;;;;;4127108;28;20035;-83
2022/09/07 05:00:15;;;;;;;12.15;1.52;;;15.40;68.80;;;;;;4123356;28;20077;-83
2022/09/07 05:02:16;;;;;;;6.32;1.67;;;15.40;69.00;;;;;;4140621;28;20041;-83
2022/09/07 05:04:17;;;;;;;5.32;1.55;;;15.40;69.20;;;;;;4119955;28;20093;-84
2022/09/07 05:06:20;;;;;;;7.50;1.75;;;15.40;68.50;;;;;;4122124;28;20581;-83
2022/09/07 05:08:20;;;;;;;4.55;1.67;;;15.40;69.30;;;;;;4120587;28;20041;-83
2022/09/07 05:10:24;;;;;;;2.38;1.17;;;15.40;69.40;;;;;;4134151;28;20038;-86
2022/09/07 05:12:25;;;;;;;8.98;1.30;;;15.40;69.20;;;;;;4131221;28;20030;-85
2022/09/07 05:14:26;;;;;;;7.57;1.70;;;15.40;69.10;;;;;;4130811;28;20556;-84
2022/09/07 05:16:28;;;;;;;5.03;1.45;;;15.40;69.00;;;;;;4122862;28;20050;-85
2022/09/07 05:18:29;;;;;;;7.85;1.50;;;15.50;68.80;;;;;;4128866;28;20027;-84
2022/09/07 05:20:30;;;;;;;3.83;1.13;;;15.50;68.60;;;;;;4120467;28;20034;-84
2022/09/07 05:22:31;;;;;;;5.93;1.50;;;15.50;68.50;;;;;;4139730;28;20034;-84
2022/09/07 05:24:35;;;;;;;8.30;1.58;;;15.50;68.50;;;;;;4122167;28;20518;-85
2022/09/07 05:26:38;;;;;;;7.78;1.30;;;15.50;68.50;;;;;;4120938;28;20110;-83
2022/09/07 05:28:38;;;;;;;11.80;1.48;;;15.50;68.70;;;;;;4123660;28;20030;-85
2022/09/07 05:30:39;;;;;;;7.63;1.45;;;15.50;68.70;;;;;;4121934;28;20482;-85
2022/09/07 05:32:44;;;;;;;12.60;2.00;;;15.50;68.70;;;;;;4121955;28;20038;-85
2022/09/07 05:34:44;;;;;;;4.82;1.75;;;15.40;68.70;;;;;;4134585;28;20031;-84
2022/09/07 05:36:45;;;;;;;11.55;1.85;;;15.50;68.70;;;;;;4119990;28;20600;-86
2022/09/07 05:38:46;;;;;;;4.80;1.33;;;15.40;68.80;;;;;;4126684;28;20445;-83
2022/09/07 05:40:46;;;;;;;4.00;1.27;;;15.40;68.80;;;;;;4114545;28;20030;-83
2022/09/07 05:42:47;;;;;;;9.35;1.80;;;15.50;68.90;;;;;;4114905;28;20110;-84
2022/09/07 05:44:48;;;;;;;4.88;1.67;;;15.50;68.90;;;;;;4120986;28;20023;-84
2022/09/07 05:46:51;;;;;;;5.75;1.50;;;15.40;68.90;;;;;;4117731;28;20038;-83
2022/09/07 05:48:52;;;;;;;7.90;1.38;;;15.50;68.70;;;;;;4121018;28;20027;-83
2022/09/07 05:50:53;;;;;;;4.97;1.40;;;15.50;68.50;;;;;;4120577;28;20042;-83
2022/09/07 05:52:53;;;;;;;8.43;1.63;;;15.60;68.40;;;;;;4119638;28;20030;-83
2022/09/07 05:54:54;;;;;;;4.88;1.75;;;15.60;68.30;;;;;;4121961;28;20027;-84
2022/09/07 05:56:55;;;;;;;3.85;1.20;;;15.60;68.20;;;;;;4119347;28;20088;-84
2022/09/07 05:58:55;;;;;;;5.60;1.60;;;15.60;68.20;;;;;;4120597;28;20057;-84
2022/09/07 06:01:04;;;;;;;4.85;1.33;;;15.60;68.10;;;;;;4120278;28;20034;-85
2022/09/07 06:03:05;;;;;;;7.93;1.35;;;15.70;68.00;;;;;;4134248;28;20032;-84
2022/09/07 06:05:06;;;;;;;4.82;1.30;;;15.70;68.00;;;;;;4119089;28;20046;-83
2022/09/07 06:07:11;;;;;;;5.13;1.33;;;15.70;67.90;;;;;;4120323;28;20026;-84
2022/09/07 06:09:11;;;;;;;8.90;1.50;;;15.70;68.10;;;;;;4138380;28;20017;-83
2022/09/07 06:11:15;;;;;;;4.72;1.40;;;15.70;67.70;;;;;;4119621;28;20045;-85
2022/09/07 06:13:16;;;;;;;4.30;1.38;;;15.80;67.60;;;;;;4118930;28;20064;-83
2022/09/07 06:15:17;;;;;;;8.07;1.58;;;15.80;67.50;;;;;;4118397;28;20102;-83
2022/09/07 06:17:18;;;;;;;3.45;1.27;;;15.80;67.40;;;;;;4120900;28;20042;-83
2022/09/07 06:19:19;;;;;;;7.30;1.30;;;15.90;67.30;;;;;;4115360;28;20442;-83
2022/09/07 06:21:22;;;;;;;4.57;1.38;;;15.90;67.20;;;;;;4131735;28;20057;-83
2022/09/07 06:23:22;;;;;;;;;;;16.00;67.10;;;;;;4118407;28;20500;-84
2022/09/07 06:25:24;;;;;;;6.90;1.25;;;16.00;67.10;;;;;;4119358;28;19928;-84
2022/09/07 06:27:24;;;;;;;2.83;1.02;;;16.00;66.80;;;;;;4120880;28;20031;-84
2022/09/07 06:29:25;;;;;;;6.00;1.20;;;16.00;66.70;;;;;;4130674;28;20041;-83
2022/09/07 06:31:27;;;;;;;7.43;1.70;;;16.10;66.60;;;;;;4133791;28;20086;-83
2022/09/07 06:33:27;;;;;;;6.53;1.50;;;16.10;66.60;;;;;;4119989;28;20406;-83
2022/09/07 06:35:28;;;;;;;4.88;1.42;;;16.10;66.50;;;;;;4121901;28;20026;-83
2022/09/07 06:37:29;;;;;;;4.20;1.50;;;16.20;66.50;;;;;;4120678;28;20030;-83
2022/09/07 06:39:30;;;;;;;8.88;1.25;;;16.20;66.30;;;;;;4123216;28;20098;-83
2022/09/07 06:41:31;;;;;;;6.75;1.67;;;16.20;66.30;;;;;;4120031;28;20109;-83
2022/09/07 06:43:32;;;;;;;9.05;1.52;;;16.20;66.20;;;;;;4122742;28;20085;-84
2022/09/07 06:45:32;;;;;;;19.42;1.73;;;16.20;66.10;;;;;;4121846;28;20030;-83
2022/09/07 06:47:33;;;;;;;8.60;1.73;;;16.30;66.00;;;;;;4119232;28;20059;-84
2022/09/07 06:49:34;;;;;;;4.20;1.30;;;16.30;66.00;;;;;;4125109;28;20113;-84
2022/09/07 06:51:34;;;;;;;7.47;1.30;;;16.30;66.70;;;;;;4129338;28;20039;-84
2022/09/07 06:53:36;;;;;;;4.88;1.30;;;16.30;65.80;;;;;;4123535;28;20085;-84
2022/09/07 06:55:43;;;;;;;5.88;1.48;;;16.30;65.80;;;;;;4123451;28;20029;-84
2022/09/07 06:57:44;;;;;;;3.00;1.25;;;16.30;65.70;;;;;;4140622;28;20070;-84
2022/09/07 06:59:45;;;;;;;7.88;1.40;;;16.40;65.60;;;;;;4122784;28;20026;-84
2022/09/07 07:01:45;;;;;;;10.57;1.40;;;16.40;65.30;;;;;;4124253;28;20113;-85
2022/09/07 07:03:47;;;;;;;8.93;1.55;;;16.40;65.20;;;;;;4120665;28;20031;-85
2022/09/07 07:05:55;;;;;;;5.15;1.17;;;16.40;65.10;;;;;;4121150;28;20015;-84
2022/09/07 07:07:56;;;;;;;9.45;1.50;;;16.50;65.00;;;;;;4123143;28;20034;-84
2022/09/07 07:09:57;;;;;;;14.10;1.20;;;16.50;65.00;;;;;;4120082;28;20026;-84
2022/09/07 07:11:58;;;;;;;5.65;2.05;;;16.50;65.00;;;;;;4120379;28;20033;-85
2022/09/07 07:13:58;;;;;;;7.10;1.40;;;16.50;64.90;;;;;;4121975;28;20100;-84
2022/09/07 07:16:15;;;;;;;9.00;1.23;;;16.50;64.90;;;;;;4123176;28;20034;-86
2022/09/07 07:18:16;;;;;;;10.05;1.38;;;16.60;64.80;;;;;;4121746;28;20726;-85
2022/09/07 07:20:17;;;;;;;6.88;1.55;;;16.60;64.80;;;;;;4134691;28;20307;-85
2022/09/07 07:22:18;;;;;;;2.78;1.35;;;16.60;64.80;;;;;;4107753;28;20121;-84
2022/09/07 07:24:18;;;;;;;4.50;1.33;;;16.60;64.70;;;;;;4122175;28;20399;-85
2022/09/07 07:26:22;;;;;;;4.55;1.38;;;16.60;64.60;;;;;;4120629;28;20049;-85
2022/09/07 07:28:23;;;;;;;3.20;1.02;;;16.70;64.80;;;;;;4126507;28;20037;-86
2022/09/07 07:30:24;;;;;;;5.18;1.35;;;16.60;64.60;;;;;;4118910;28;20045;-85
2022/09/07 07:32:26;;;;;;;4.65;1.58;;;16.70;64.60;;;;;;4122838;28;20502;-86
2022/09/07 07:34:27;;;;;;;6.07;1.33;;;16.70;64.60;;;;;;4121419;28;20022;-85
2022/09/07 07:36:28;;;;;;;4.32;1.48;;;16.80;64.70;;;;;;4118153;28;20034;-86
2022/09/07 07:38:29;;;;;;;4.45;1.40;;;16.70;64.50;;;;;;4116499;28;20450;-85
2022/09/07 07:40:30;;;;;;;7.35;1.52;;;16.80;64.60;;;;;;4116514;28;20034;-85
2022/09/07 07:42:31;;;;;;;7.30;1.58;;;16.70;64.40;;;;;;4131974;28;20375;-85
2022/09/07 07:44:32;;;;;;;9.05;1.88;;;16.80;64.40;;;;;;4118481;28;20568;-85
2022/09/07 07:46:33;;;;;;;6.78;1.40;;;16.80;64.40;;;;;;4114419;28;20035;-85
2022/09/07 07:48:36;;;;;;;5.22;1.50;;;16.80;64.30;;;;;;4129444;28;20096;-86
2022/09/07 07:50:37;;;;;;;5.05;1.45;;;16.80;64.30;;;;;;4115954;28;20026;-85
2022/09/07 07:52:39;;;;;;;3.80;1.30;;;16.90;64.40;;;;;;4122680;28;20095;-85
2022/09/07 07:54:39;;;;;;;6.15;1.48;;;16.90;64.30;;;;;;4120287;28;20033;-86
2022/09/07 07:56:40;;;;;;;6.13;1.70;;;16.90;63.90;;;;;;4118276;28;20034;-85
2022/09/07 07:58:45;;;;;;;7.15;1.42;;;16.90;63.90;;;;;;4117527;28;20142;-85
2022/09/07 08:00:46;;;;;;;3.80;1.50;;;17.00;63.70;;;;;;4121512;28;20034;-85
2022/09/07 08:02:47;;;;;;;3.75;1.10;;;17.00;63.40;;;;;;4133277;28;20025;-84
2022/09/07 08:04:48;;;;;;;2.22;1.10;;;17.10;63.50;;;;;;4119047;28;20041;-85
2022/09/07 08:06:48;;;;;;;12.00;1.55;;;17.10;63.40;;;;;;4116562;28;20042;-84
2022/09/07 08:08:49;;;;;;;4.40;1.40;;;17.20;63.30;;;;;;4133718;28;20030;-85
2022/09/07 08:10:50;;;;;;;6.30;1.60;;;17.20;63.10;;;;;;4120791;28;20053;-86
2022/09/07 08:12:52;;;;;;;6.50;1.60;;;17.30;63.00;;;;;;4140730;28;20669;-86
2022/09/07 08:14:52;;;;;;;9.52;1.58;;;17.30;62.80;;;;;;4122272;28;20528;-86
2022/09/07 08:16:53;;;;;;;7.30;1.58;;;17.40;62.80;;;;;;4122215;28;20101;-85
2022/09/07 08:18:54;;;;;;;5.18;1.30;;;17.40;62.30;;;;;;4121349;28;20326;-84
2022/09/07 08:21:03;;;;;;;6.32;1.60;;;17.40;62.30;;;;;;4122552;28;20110;-85
2022/09/07 08:23:06;;;;;;;3.42;1.30;;;17.50;62.20;;;;;;4112912;28;20042;-86
2022/09/07 08:25:07;;;;;;;3.07;1.60;;;17.50;62.20;;;;;;4119238;28;20026;-86
2022/09/07 08:27:08;;;;;;;7.53;1.60;;;17.60;61.90;;;;;;4129930;28;20057;-86
2022/09/07 08:29:09;;;;;;;3.50;1.52;;;17.60;61.70;;;;;;4124578;28;20031;-86
2022/09/07 08:31:12;;;;;;;9.88;1.60;;;17.70;61.60;;;;;;4118788;28;20975;-85
2022/09/07 08:33:13;;;;;;;3.00;1.45;;;17.70;60.80;;;;;;4122521;28;20098;-85
2022/09/07 08:35:14;;;;;;;5.18;1.55;;;17.60;59.80;;;;;;4118942;28;20382;-86
2022/09/07 08:37:15;;;;;;;4.13;1.30;;;17.70;59.90;;;;;;4116764;28;20062;-85
2022/09/07 08:39:15;;;;;;;7.13;1.60;;;17.70;60.30;;;;;;4118470;28;20031;-86
2022/09/07 08:41:55;;;;;;;5.47;1.73;;;17.70;59.90;;;;;;4119068;28;20049;-85
2022/09/07 08:44:02;;;;;;;12.32;1.67;;;17.80;59.60;;;;;;4109580;28;20441;-85
2022/09/07 08:46:12;;;;;;;4.03;1.50;;;17.80;59.50;;;;;;4120491;28;20022;-86
2022/09/07 08:48:17;;;;;;;8.32;1.60;;;17.80;59.70;;;;;;4117527;28;20030;-86
2022/09/07 08:50:32;;;;;;;7.82;1.80;;;17.80;59.90;;;;;;4120880;28;20038;-86
2022/09/07 08:52:50;;;;;;;8.82;2.13;;;17.80;59.90;;;;;;4122096;28;20030;-85
2022/09/07 08:55:09;;;;;;;12.00;1.92;;;17.80;59.60;;;;;;4121060;28;20830;-86
2022/09/07 08:57:12;;;;;;;9.80;2.03;;;17.80;60.00;;;;;;4134299;28;20030;-86
2022/09/07 08:59:29;;;;;;;6.70;1.38;;;17.80;59.70;;;;;;4123493;28;20786;-85
2022/09/07 09:01:40;;;;;;;6.00;2.22;;;17.80;59.40;;;;;;4119653;28;20038;-85
2022/09/07 09:03:41;;;;;;;8.68;1.95;;;17.80;59.40;;;;;;4118193;28;20098;-85
2022/09/07 09:06:07;;;;;;;5.63;1.40;;;17.90;59.40;;;;;;4118953;28;20022;-86
2022/09/07 09:08:35;;;;;;;7.25;1.55;;;17.90;59.20;;;;;;4116262;28;20045;-86
2022/09/07 09:10:45;;;;;;;7.25;1.70;;;17.90;59.20;;;;;;4128780;28;20080;-86
2022/09/07 09:12:54;;;;;;;6.25;1.65;;;18.00;59.20;;;;;;4117206;28;20198;-86
2022/09/07 09:15:20;;;;;;;3.53;1.58;;;18.00;59.10;;;;;;4113028;28;20029;-86
2022/09/07 09:17:42;;;;;;;4.63;1.75;;;18.00;59.10;;;;;;4119144;28;20027;-85
2022/09/07 09:19:57;;;;;;;3.50;1.60;;;18.00;58.70;;;;;;4118877;28;20751;-86
2022/09/07 09:22:19;;;;;;;3.42;1.55;;;18.10;58.70;;;;;;4119889;28;20030;-85
2022/09/07 09:24:22;;;;;;;7.10;1.77;;;18.00;58.40;;;;;;4117617;28;20042;-86
2022/09/07 09:26:26;;;;;;;6.80;2.50;;;18.10;58.10;;;;;;4103764;28;20395;-86
2022/09/07 09:28:26;;;;;;;9.82;1.70;;;18.00;57.70;;;;;;4121038;28;20027;-85
2022/09/07 09:30:28;;;;;;;6.03;1.95;;;18.00;58.20;;;;;;4115826;28;20129;-86
2022/09/07 09:32:32;;;;;;;8.75;1.80;;;18.00;58.50;;;;;;4121302;28;20510;-85
2022/09/07 09:34:33;;;;;;;9.27;1.92;;;18.00;59.00;;;;;;4118925;28;20030;-86
2022/09/07 09:36:41;;;;;;;10.25;1.70;;;17.90;59.10;;;;;;4114751;28;20034;-86
2022/09/07 09:38:42;;;;;;;5.95;2.13;;;17.90;59.40;;;;;;4116513;28;20034;-85
2022/09/07 09:40:51;;;;;;;3.92;1.80;;;17.90;59.70;;;;;;4115032;28;20035;-85
2022/09/07 09:43:05;;;;;;;9.95;2.03;;;17.80;60.00;;;;;;4117053;28;20030;-85
2022/09/07 09:45:15;;;;;;;8.60;2.00;;;17.80;60.10;;;;;;4134465;28;20053;-85
2022/09/07 09:47:26;;;;;;;4.32;1.80;;;17.80;60.30;;;;;;4120186;28;20030;-84
2022/09/07 09:49:37;;;;;;;3.45;1.42;;;17.70;60.70;;;;;;4118548;28;20030;-86
2022/09/07 09:51:44;;;;;;;5.45;1.67;;;17.60;60.80;;;;;;4114253;28;20022;-85
2022/09/07 09:53:53;;;;;;;7.13;1.83;;;17.50;61.30;;;;;;4132104;28;20320;-86
2022/09/07 09:55:55;;;;;;;6.07;1.67;;;17.50;61.70;;;;;;4118133;28;20031;-86
2022/09/07 09:58:00;;;;;;;5.07;2.40;;;17.50;61.90;;;;;;4139733;28;20033;-86
2022/09/07 10:00:02;;;;;;;4.70;1.98;;;17.40;62.10;;;;;;4119526;28;20426;-86
2022/09/07 10:02:28;;;;;;;8.65;1.67;;;17.40;62.40;;;;;;4125908;28;20018;-85
2022/09/07 10:04:33;;;;;;;10.02;2.10;;;17.30;63.30;;;;;;4120692;28;20833;-85
2022/09/07 10:06:34;;;;;;;9.40;2.50;;;17.30;63.20;;;;;;4125875;28;20026;-86
2022/09/07 10:08:36;;;;;;;5.30;2.13;;;17.30;63.70;;;;;;4124167;28;20041;-85
2022/09/07 10:10:37;;;;;;;10.15;2.00;;;17.20;64.20;;;;;;4122127;28;20094;-84
2022/09/07 10:12:39;;;;;;;8.40;1.92;;;17.20;64.60;;;;;;4119930;28;20104;-85
2022/09/07 10:14:45;;;;;;;8.57;2.42;;;17.20;65.10;;;;;;4120424;28;20031;-86
2022/09/07 10:16:46;;;;;;;7.28;2.67;;;17.20;65.90;;;;;;4116701;28;20027;-86
2022/09/07 10:18:55;;;;;;;9.77;1.95;;;17.10;66.00;;;;;;4138443;28;20028;-85
2022/09/07 10:21:23;;;;;;;4.40;2.10;;;17.10;67.20;;;;;;4121983;28;20398;-85
2022/09/07 10:23:26;;;;;;;6.32;2.10;;;17.10;67.80;;;;;;4138618;28;20058;-85
2022/09/07 10:25:38;;;;;;;;;;;17.10;67.90;;;;;;4121429;28;20027;-85
2022/09/07 10:27:39;;;;;;;7.60;2.55;;;17.00;68.70;;;;;;4121822;28;19917;-86
2022/09/07 10:29:40;;;;;;;8.48;2.10;;;17.00;68.50;;;;;;4126256;28;20046;-85
2022/09/07 10:32:04;;;;;;;6.93;2.42;;;16.90;68.60;;;;;;4124766;28;20034;-85
2022/09/07 10:34:31;;;;;;;14.55;2.10;;;16.80;68.10;;;;;;4122943;28;20022;-86
2022/09/07 10:36:51;;;;;;;6.88;2.08;;;16.80;68.30;;;;;;4137707;28;20084;-86
2022/09/07 10:39:03;;;;;;;3.67;2.10;;;16.80;68.60;;;;;;4122839;28;20027;-85
2022/09/07 10:41:08;;;;;;;9.48;2.17;;;16.80;68.40;;;;;;4138688;28;20017;-87
2022/09/07 10:43:24;;;;;;;16.42;2.53;;;16.70;68.00;;;;;;4122141;28;20041;-86
2022/09/07 10:46:10;;;;;;;7.32;2.35;;;16.80;68.00;;;;;;4121787;28;20022;-85
2022/09/07 10:48:18;;;;;;;8.25;2.67;;;16.70;68.20;;;;;;4119870;28;20061;-86
2022/09/07 10:50:24;;;;;;;8.00;2.28;;;16.70;68.00;;;;;;4124669;28;20105;-86
2022/09/07 10:52:36;;;;;;;9.85;2.30;;;16.70;68.20;;;;;;4122602;28;20046;-86
2022/09/07 10:54:49;;;;;;;13.10;2.10;;;16.70;68.20;;;;;;4136304;28;20037;-85